Time;durP1;ratioP1;P1;durP2;ratioP2;P2;SDS_P1;SDS_P2;PMS_P1;PMS_P2;Temp;Humidity;BMP_temperature;BMP_pressure;BME280_temperature;BME280_humidity;BME280_pressure;Samples;Min_cycle;Max_cycle;Signal;HPM_P1;HPM_P2
2023/07/13 07:11:43;;;;;;;1.02;0.38;;;22.50;75.80;;;;;;6421926;27;21079;-60
2023/07/13 07:15:14;;;;;;;0.60;0.40;;;22.60;84.40;;;;;;6379483;27;20608;-61
2023/07/13 07:20:05;;;;;;;1.98;0.50;;;23.10;88.80;;;;;;6422619;27;21110;-61
2023/07/13 07:23:07;;;;;;;0.63;0.47;;;22.70;72.80;;;;;;6375568;27;20073;-60
2023/07/13 07:26:09;;;;;;;3.22;0.35;;;23.30;72.90;;;;;;6397149;27;20075;-61
2023/07/13 07:29:11;;;;;;;0.65;0.40;;;23.40;72.20;;;;;;6395880;27;20523;-61
2023/07/13 07:33:45;;;;;;;0.95;0.35;;;23.30;61.30;;;;;;6390357;22;20379;-59
2023/07/13 07:36:47;;;;;;;1.27;0.50;;;23.50;60.30;;;;;;6267520;28;20040;-59
2023/07/13 07:39:52;;;;;;;2.58;0.50;;;22.40;60.50;;;;;;6262529;28;20113;-61
2023/07/13 07:43:13;;;;;;;;;;;23.60;68.30;;;;;;6262841;28;20051;-61
2023/07/13 07:46:15;;;;;;;0.77;0.50;;;23.70;83.40;;;;;;6259928;28;19920;-61
2023/07/13 07:49:18;;;;;;;0.98;0.60;;;23.90;63.00;;;;;;6227742;28;20102;-61
2023/07/13 07:52:20;;;;;;;0.82;0.60;;;23.90;61.80;;;;;;6247643;28;20075;-61
2023/07/13 07:55:22;;;;;;;0.57;0.40;;;23.80;61.50;;;;;;6270084;28;20044;-61
2023/07/13 07:58:26;;;;;;;0.52;0.40;;;23.90;62.30;;;;;;6286916;28;20127;-61
2023/07/13 08:01:31;;;;;;;0.75;0.30;;;24.10;62.10;;;;;;6286939;28;20123;-61
2023/07/13 08:04:36;;;;;;;0.95;0.35;;;23.90;61.80;;;;;;6290171;28;20121;-61
2023/07/13 08:07:58;;;;;;;1.08;0.50;;;24.10;61.80;;;;;;6287589;28;20740;-61
2023/07/13 08:11:02;;;;;;;0.68;0.50;;;24.00;62.00;;;;;;6290048;28;20039;-60
2023/07/13 08:14:19;;;;;;;1.38;0.40;;;24.00;61.80;;;;;;6295027;28;20846;-59
2023/07/13 08:17:20;;;;;;;0.55;0.20;;;24.00;60.50;;;;;;6293427;28;20032;-59
2023/07/13 08:20:23;;;;;;;0.43;0.40;;;24.10;62.70;;;;;;6271155;28;20039;-59
2023/07/13 08:23:25;;;;;;;0.90;0.45;;;24.30;62.20;;;;;;6293181;28;20032;-58
2023/07/13 08:26:27;;;;;;;0.70;0.50;;;24.10;62.40;;;;;;6291900;28;20028;-60
2023/07/13 08:29:31;;;;;;;1.23;0.40;;;23.80;62.40;;;;;;6244491;28;20040;-59
2023/07/13 08:32:33;;;;;;;0.45;0.30;;;24.10;61.90;;;;;;6290728;28;20044;-58
2023/07/13 08:35:35;;;;;;;0.40;0.40;;;24.00;62.20;;;;;;6294352;28;20047;-59
2023/07/13 08:38:37;;;;;;;0.75;0.30;;;24.20;62.00;;;;;;6290923;28;20427;-58
2023/07/13 08:41:41;;;;;;;1.33;0.63;;;24.20;62.20;;;;;;6215803;28;20487;-59
2023/07/13 08:44:55;;;;;;;0.70;0.50;;;23.80;62.00;;;;;;6188037;28;20436;-59
2023/07/13 08:48:00;;;;;;;0.63;0.30;;;24.10;62.50;;;;;;6272398;28;20097;-59
2023/07/13 08:51:13;;;;;;;1.00;0.40;;;24.20;62.30;;;;;;6224879;28;20028;-58
2023/07/13 08:54:22;;;;;;;0.85;0.50;;;24.20;62.60;;;;;;6273375;28;20154;-59
2023/07/13 08:57:31;;;;;;;0.73;0.30;;;24.40;62.10;;;;;;6272709;28;20584;-58
2023/07/13 09:00:43;;;;;;;1.55;0.40;;;24.00;62.40;;;;;;6275174;28;20040;-58
2023/07/13 09:03:54;;;;;;;0.50;0.43;;;24.20;62.50;;;;;;6273658;28;20044;-59
2023/07/13 09:07:05;;;;;;;0.40;0.30;;;24.40;61.90;;;;;;6216055;28;20040;-58
2023/07/13 09:10:15;;;;;;;0.65;0.30;;;23.80;62.80;;;;;;6118720;28;20453;-59
2023/07/13 09:13:26;;;;;;;0.52;0.40;;;24.50;63.30;;;;;;6101806;28;20032;-59
2023/07/13 09:16:28;;;;;;;0.30;0.30;;;24.40;61.80;;;;;;6101031;28;20510;-58
2023/07/13 09:19:33;;;;;;;1.15;0.50;;;24.40;62.30;;;;;;6100876;28;20044;-59
2023/07/13 09:22:39;;;;;;;0.32;0.30;;;24.10;62.30;;;;;;6159278;28;20398;-60
2023/07/13 09:25:45;;;;;;;0.40;0.30;;;24.40;61.30;;;;;;6272034;28;20128;-56
2023/07/13 09:28:55;;;;;;;0.60;0.50;;;24.20;61.10;;;;;;6272048;28;20896;-55
2023/07/13 09:32:00;;;;;;;1.13;0.32;;;24.40;61.70;;;;;;6272832;28;20043;-56
2023/07/13 09:35:11;;;;;;;0.60;0.30;;;24.80;61.30;;;;;;6270218;28;20032;-58
2023/07/13 09:38:17;;;;;;;0.45;0.40;;;25.80;61.90;;;;;;6271710;28;20035;-57
2023/07/13 09:41:28;;;;;;;0.50;0.50;;;24.40;60.70;;;;;;6266789;28;20028;-58
2023/07/13 09:44:35;;;;;;;1.30;0.35;;;24.60;60.70;;;;;;6272267;28;20056;-59
2023/07/13 09:47:40;;;;;;;0.63;0.40;;;24.70;60.20;;;;;;6272596;28;20032;-54
2023/07/13 09:50:43;;;;;;;0.30;0.30;;;24.70;60.00;;;;;;6244542;28;20269;-57
2023/07/13 09:53:45;;;;;;;0.30;0.30;;;22.70;60.10;;;;;;6098133;28;20036;-55
2023/07/13 09:56:46;;;;;;;0.60;0.40;;;24.70;61.00;;;;;;6098040;28;20040;-57
2023/07/13 09:59:50;;;;;;;0.40;0.35;;;24.90;60.40;;;;;;6111911;28;20035;-56
2023/07/13 10:03:01;;;;;;;0.60;0.40;;;24.90;60.80;;;;;;6148906;28;20107;-55
2023/07/13 10:06:10;;;;;;;;;;;24.80;59.80;;;;;;6102656;28;20036;-55
2023/07/13 10:09:16;;;;;;;0.47;0.30;;;25.10;61.30;;;;;;6102571;28;19923;-56
2023/07/13 10:12:18;;;;;;;0.40;0.20;;;24.90;59.90;;;;;;6102927;28;20176;-53
2023/07/13 10:15:22;;;;;;;0.40;0.20;;;24.10;58.60;;;;;;6094237;28;20036;-55
2023/07/13 10:18:28;;;;;;;0.40;0.30;;;24.90;59.20;;;;;;6266306;28;20102;-56
2023/07/13 10:21:35;;;;;;;0.40;0.40;;;24.90;58.20;;;;;;6267122;28;20039;-55
2023/07/13 10:24:40;;;;;;;2.10;0.43;;;24.70;58.20;;;;;;6264249;28;20818;-56
2023/07/13 10:27:42;;;;;;;0.40;0.30;;;24.50;57.70;;;;;;6266705;28;20167;-55
2023/07/13 10:30:46;;;;;;;0.32;0.20;;;24.90;57.70;;;;;;6266738;28;20044;-56
2023/07/13 10:33:49;;;;;;;0.32;0.32;;;24.80;57.50;;;;;;6263029;28;20048;-56
2023/07/13 10:36:52;;;;;;;0.35;0.30;;;25.00;57.90;;;;;;6263207;28;20024;-57
2023/07/13 10:39:57;;;;;;;0.40;0.30;;;24.90;57.30;;;;;;6259532;28;20044;-55
2023/07/13 10:43:06;;;;;;;0.30;0.30;;;25.00;57.70;;;;;;6263856;28;20044;-57
2023/07/13 11:57:28;;;;;;;0.50;0.40;;;24.00;58.60;;;;;;6425455;27;20322;-57
2023/07/13 12:00:33;;;;;;;0.55;0.30;;;23.50;53.80;;;;;;6392394;27;20372;-60
2023/07/13 12:03:40;;;;;;;2.25;0.75;;;24.20;53.00;;;;;;6378164;27;20034;-59
2023/07/13 12:06:43;;;;;;;1.90;0.50;;;24.00;51.90;;;;;;6376900;27;20617;-60
2023/07/13 12:09:45;;;;;;;0.60;0.50;;;24.40;51.80;;;;;;6375029;27;20030;-61
2023/07/13 12:12:53;;;;;;;0.40;0.30;;;24.50;52.40;;;;;;6267056;27;20244;-48
2023/07/13 12:15:56;;;;;;;0.45;0.30;;;24.50;51.40;;;;;;6348755;27;20038;-48
2023/07/13 12:18:58;;;;;;;0.50;0.40;;;24.70;51.00;;;;;;6340421;27;20037;-48
2023/07/13 12:22:00;;;;;;;2.78;0.40;;;24.20;51.00;;;;;;6359459;27;20573;-44
2023/07/13 12:25:02;;;;;;;0.50;0.40;;;24.60;51.20;;;;;;6411053;27;20551;-49
2023/07/13 12:28:21;;;;;;;0.30;0.30;;;24.90;51.00;;;;;;6409753;27;20026;-45
2023/07/13 12:31:31;;;;;;;1.80;0.40;;;24.90;51.20;;;;;;6415764;27;20041;-48
2023/07/13 12:34:32;;;;;;;0.50;0.40;;;24.80;50.60;;;;;;6404216;27;20271;-45
2023/07/13 12:37:35;;;;;;;1.17;0.40;;;24.70;58.60;;;;;;6352369;27;20585;-45
2023/07/13 12:40:37;;;;;;;1.08;0.40;;;25.00;51.60;;;;;;6319033;27;20105;-46
2023/07/13 12:43:39;;;;;;;0.40;0.30;;;24.70;50.00;;;;;;6405458;27;20342;-45
2023/07/13 12:48:45;;;;;;;0.30;0.30;;;25.00;51.50;;;;;;6445285;27;20564;-48
2023/07/13 12:51:58;;;;;;;0.20;0.20;;;24.80;49.40;;;;;;6398610;27;20086;-48
2023/07/13 12:55:09;;;;;;;0.68;0.40;;;25.00;49.70;;;;;;6378103;27;20034;-50
2023/07/13 12:58:19;;;;;;;0.85;0.40;;;25.10;50.10;;;;;;6337854;27;20433;-46
2023/07/13 13:01:22;;;;;;;0.50;0.30;;;25.00;50.10;;;;;;6355871;27;20031;-50
2023/07/13 13:04:25;;;;;;;0.70;0.40;;;24.90;50.20;;;;;;6354526;27;20038;-48
2023/07/13 13:07:27;;;;;;;0.60;0.30;;;25.10;50.80;;;;;;6362289;27;20683;-49
2023/07/13 13:10:29;;;;;;;0.63;0.50;;;25.30;51.10;;;;;;6352029;27;20563;-45
2023/07/13 13:13:30;;;;;;;1.08;0.47;;;25.20;51.50;;;;;;6367040;27;20035;-49
2023/07/13 13:16:34;;;;;;;0.50;0.30;;;25.30;51.30;;;;;;6363551;27;20165;-48
2023/07/13 13:19:36;;;;;;;0.60;0.32;;;24.90;51.60;;;;;;6382213;27;20033;-50
2023/07/13 13:22:38;;;;;;;0.50;0.30;;;25.30;51.80;;;;;;6377601;27;20064;-47
2023/07/13 13:25:39;;;;;;;0.50;0.40;;;25.40;52.30;;;;;;6376254;27;20533;-47
2023/07/13 13:28:43;;;;;;;0.63;0.35;;;25.50;52.00;;;;;;6323560;27;20049;-50
2023/07/13 13:31:45;;;;;;;0.30;0.30;;;25.20;52.10;;;;;;6357821;27;20034;-49
2023/07/13 13:34:47;;;;;;;0.73;0.40;;;25.30;52.80;;;;;;6360161;27;20030;-47
2023/07/13 13:37:50;;;;;;;0.50;0.40;;;25.20;52.50;;;;;;6355315;27;20273;-50
2023/07/13 13:40:52;;;;;;;0.50;0.30;;;25.40;52.80;;;;;;6366289;27;20497;-46
2023/07/13 13:43:53;;;;;;;0.63;0.45;;;25.40;54.20;;;;;;6363248;27;20031;-45
2023/07/13 13:49:43;;;;;;;0.50;0.50;;;26.00;71.70;;;;;;6419177;27;20322;-45
2023/07/13 13:52:45;;;;;;;0.43;0.40;;;25.40;54.30;;;;;;6437414;27;20043;-47
2023/07/13 13:55:49;;;;;;;0.35;0.20;;;24.10;54.20;;;;;;6407605;27;20037;-46
2023/07/13 13:58:50;;;;;;;0.50;0.40;;;25.50;55.30;;;;;;6378429;27;20087;-46
2023/07/13 14:01:52;;;;;;;0.50;0.40;;;25.40;55.20;;;;;;6377886;27;20034;-50
2023/07/13 14:04:59;;;;;;;0.50;0.40;;;24.90;55.30;;;;;;6372122;27;20120;-47
2023/07/13 14:08:00;;;;;;;1.13;0.43;;;24.10;54.50;;;;;;6343300;27;20141;-50
2023/07/13 14:11:04;;;;;;;0.35;0.30;;;25.50;69.70;;;;;;6395424;27;20050;-49
2023/07/13 14:14:05;;;;;;;0.50;0.40;;;25.40;56.20;;;;;;6408651;27;20042;-48
2023/07/13 14:17:18;;;;;;;1.60;0.40;;;25.50;56.50;;;;;;6363572;27;20126;-47
2023/07/13 14:20:25;;;;;;;0.60;0.40;;;25.40;55.80;;;;;;6370866;27;20520;-51
2023/07/13 14:23:26;;;;;;;1.48;0.32;;;25.70;56.80;;;;;;6375247;27;20235;-52
2023/07/13 14:26:36;;;;;;;0.40;0.40;;;25.30;56.80;;;;;;6359954;27;20049;-52
2023/07/13 14:29:38;;;;;;;0.30;0.30;;;24.90;56.10;;;;;;6371319;27;20570;-47
2023/07/13 14:32:44;;;;;;;0.77;0.40;;;25.20;56.60;;;;;;6351737;27;20070;-48
2023/07/13 14:35:49;;;;;;;0.80;0.40;;;25.30;56.90;;;;;;6381642;27;20730;-47
2023/07/13 14:38:52;;;;;;;0.40;0.40;;;25.50;57.00;;;;;;6376643;27;20045;-50
2023/07/13 14:41:55;;;;;;;0.88;0.40;;;25.40;56.90;;;;;;6383439;27;20045;-42
2023/07/13 14:44:59;;;;;;;0.40;0.38;;;25.40;57.20;;;;;;6383431;27;20056;-45
2023/07/13 14:48:01;;;;;;;0.40;0.38;;;25.30;56.90;;;;;;6401741;27;20031;-49
2023/07/13 14:51:10;;;;;;;0.73;0.40;;;25.10;56.80;;;;;;6408480;27;20079;-46
2023/07/13 14:54:11;;;;;;;0.50;0.40;;;25.30;57.00;;;;;;6419331;27;20044;-43
2023/07/13 14:57:18;;;;;;;0.55;0.40;;;25.30;57.60;;;;;;6431666;27;20038;-44
2023/07/13 15:00:21;;;;;;;0.43;0.32;;;25.10;57.50;;;;;;6353052;27;20095;-45
2023/07/13 15:03:25;;;;;;;0.60;0.50;;;25.40;57.10;;;;;;6375724;27;20035;-44
2023/07/13 15:06:28;;;;;;;0.88;0.60;;;25.50;57.30;;;;;;6386476;27;20520;-47
2023/07/13 15:09:30;;;;;;;0.52;0.43;;;25.20;57.70;;;;;;6397975;27;20041;-46
2023/07/13 15:12:32;;;;;;;1.35;0.30;;;25.30;58.00;;;;;;6394047;27;20031;-47
2023/07/13 15:15:35;;;;;;;0.57;0.40;;;25.10;58.20;;;;;;6400979;27;20053;-43
2023/07/13 15:18:39;;;;;;;0.95;0.50;;;25.00;58.00;;;;;;6384044;27;20034;-49
2023/07/13 15:21:42;;;;;;;0.63;0.40;;;25.50;57.80;;;;;;6376421;27;20047;-49
2023/07/13 15:24:43;;;;;;;0.90;0.40;;;25.70;57.70;;;;;;6371532;27;20103;-47
2023/07/13 15:27:45;;;;;;;1.52;0.45;;;25.20;57.80;;;;;;6355826;27;20663;-46
2023/07/13 15:30:48;;;;;;;0.45;0.40;;;25.50;63.70;;;;;;6349009;27;20035;-47
2023/07/13 15:33:51;;;;;;;1.02;0.32;;;25.30;62.80;;;;;;6325391;27;20035;-44
2023/07/13 15:36:54;;;;;;;0.63;0.50;;;25.30;63.70;;;;;;6354515;27;20746;-48
2023/07/13 15:39:58;;;;;;;0.40;0.30;;;25.00;62.80;;;;;;6348994;27;20062;-50
2023/07/13 15:42:59;;;;;;;0.40;0.32;;;25.10;63.30;;;;;;6350620;27;20038;-45
2023/07/13 15:46:01;;;;;;;0.88;0.30;;;24.90;63.00;;;;;;6325373;27;20043;-45
2023/07/13 15:49:09;;;;;;;1.75;0.73;;;25.20;63.10;;;;;;6352485;27;20119;-50
2023/07/13 15:52:19;;;;;;;0.40;0.30;;;25.00;63.00;;;;;;6353350;27;20035;-50
2023/07/13 15:55:24;;;;;;;0.28;0.22;;;24.90;62.80;;;;;;6375393;27;20031;-52
2023/07/13 15:58:28;;;;;;;0.30;0.20;;;25.30;63.60;;;;;;6342617;27;20043;-49
2023/07/13 16:01:32;;;;;;;0.50;0.30;;;25.10;63.10;;;;;;6381641;27;20046;-48
2023/07/13 16:04:33;;;;;;;0.43;0.40;;;25.10;63.40;;;;;;6383439;27;20031;-52
2023/07/13 16:07:36;;;;;;;0.50;0.30;;;25.10;63.50;;;;;;6383733;27;20075;-50
2023/07/13 16:10:40;;;;;;;0.80;0.38;;;25.10;63.30;;;;;;6385423;27;20031;-50
2023/07/13 16:13:45;;;;;;;0.47;0.32;;;25.20;63.20;;;;;;6384336;27;20034;-50
2023/07/13 16:16:50;;;;;;;0.30;0.28;;;25.30;64.20;;;;;;6384146;27;20035;-49
2023/07/13 16:19:53;;;;;;;0.40;0.35;;;25.20;63.40;;;;;;6366528;27;20035;-47
2023/07/13 16:22:55;;;;;;;0.40;0.40;;;25.10;63.40;;;;;;6365611;27;20058;-50
2023/07/13 16:25:57;;;;;;;0.45;0.35;;;25.20;63.20;;;;;;6366207;27;20035;-48
2023/07/13 16:29:00;;;;;;;0.40;0.40;;;25.30;63.70;;;;;;6361261;27;20041;-50
2023/07/13 16:32:04;;;;;;;1.10;0.40;;;25.30;63.10;;;;;;6359403;27;20038;-48
2023/07/13 16:35:08;;;;;;;0.38;0.30;;;25.40;62.90;;;;;;6361803;27;20031;-50
2023/07/13 16:38:17;;;;;;;0.45;0.40;;;25.30;62.60;;;;;;6362507;27;20047;-47
2023/07/13 16:41:19;;;;;;;0.25;0.25;;;25.40;62.60;;;;;;6369562;27;20039;-47
2023/07/13 16:44:22;;;;;;;0.45;0.40;;;25.50;62.70;;;;;;6379625;27;20438;-48
2023/07/13 16:47:23;;;;;;;0.57;0.30;;;25.60;62.60;;;;;;6374844;27;20039;-50
2023/07/13 16:50:30;;;;;;;0.75;0.40;;;25.50;62.40;;;;;;6378869;27;20262;-47
2023/07/13 16:53:33;;;;;;;0.50;0.30;;;26.00;62.60;;;;;;6367488;27;20049;-46
2023/07/13 16:56:35;;;;;;;0.52;0.30;;;25.30;82.50;;;;;;6368236;27;20047;-51
2023/07/13 16:59:37;;;;;;;0.40;0.40;;;25.70;62.70;;;;;;6362161;27;20152;-48
2023/07/13 17:02:39;;;;;;;0.47;0.47;;;25.60;61.70;;;;;;6371002;27;20281;-50
2023/07/13 17:05:43;;;;;;;0.60;0.30;;;25.30;63.20;;;;;;6372965;27;20054;-50
2023/07/13 17:08:46;;;;;;;0.30;0.30;;;25.70;62.30;;;;;;6355387;27;20086;-48
2023/07/13 17:11:49;;;;;;;0.30;0.30;;;25.70;61.80;;;;;;6377251;27;20429;-51
2023/07/13 17:14:51;;;;;;;0.50;0.50;;;25.70;61.50;;;;;;6375595;27;20035;-48
2023/07/13 17:18:03;;;;;;;0.35;0.30;;;25.80;61.50;;;;;;6373819;27;20058;-48
2023/07/13 17:21:07;;;;;;;0.40;0.40;;;25.90;61.40;;;;;;6370286;27;20055;-45
2023/07/13 17:24:16;;;;;;;0.40;0.30;;;26.00;61.30;;;;;;6346609;27;20035;-48
2023/07/13 17:27:17;;;;;;;0.70;0.40;;;25.90;61.10;;;;;;6359190;27;20424;-48
2023/07/13 17:30:21;;;;;;;0.50;0.40;;;25.80;61.60;;;;;;6367995;27;20042;-46
2023/07/13 17:33:32;;;;;;;0.55;0.40;;;25.90;61.40;;;;;;6370553;27;20034;-50
2023/07/13 17:36:34;;;;;;;0.37;0.30;;;26.10;61.50;;;;;;6371213;27;20034;-48
2023/07/13 17:39:37;;;;;;;0.38;0.38;;;25.50;61.40;;;;;;6361020;27;20352;-47
2023/07/13 17:42:40;;;;;;;0.45;0.28;;;26.00;61.70;;;;;;6360988;27;20039;-46
2023/07/13 17:45:42;;;;;;;0.32;0.30;;;25.90;61.00;;;;;;6368318;27;20516;-48
2023/07/13 17:48:46;;;;;;;0.20;0.20;;;26.10;62.10;;;;;;6375260;27;20631;-51
2023/07/13 17:51:48;;;;;;;0.47;0.35;;;25.80;61.10;;;;;;6375621;27;20042;-50
2023/07/13 17:54:50;;;;;;;0.40;0.30;;;26.00;61.40;;;;;;6353308;27;20056;-46
2023/07/13 17:57:52;;;;;;;0.52;0.40;;;26.10;61.90;;;;;;6353137;27;20049;-51
2023/07/13 18:00:54;;;;;;;0.43;0.40;;;26.00;61.80;;;;;;6361051;27;20589;-46
2023/07/13 18:03:57;;;;;;;0.45;0.30;;;26.00;61.50;;;;;;6372969;27;20027;-48
2023/07/13 18:07:08;;;;;;;0.38;0.20;;;25.90;61.50;;;;;;6374818;27;20046;-49
2023/07/13 18:10:14;;;;;;;0.60;0.38;;;26.10;60.80;;;;;;6374917;27;20043;-48
2023/07/13 18:13:17;;;;;;;0.20;0.20;;;26.10;61.30;;;;;;6375682;27;20026;-48
2023/07/13 18:16:24;;;;;;;0.73;0.32;;;26.20;61.60;;;;;;6357037;27;20035;-48
2023/07/13 18:19:33;;;;;;;0.68;0.40;;;26.30;61.70;;;;;;6357017;27;20039;-49
2023/07/13 18:22:35;;;;;;;0.43;0.40;;;26.00;61.10;;;;;;6375203;27;20030;-46
2023/07/13 18:25:37;;;;;;;0.38;0.28;;;26.20;62.00;;;;;;6375368;27;20118;-44
2023/07/13 18:28:42;;;;;;;0.40;0.30;;;26.20;60.80;;;;;;6373315;27;20035;-50
2023/07/13 18:31:44;;;;;;;0.63;0.40;;;26.00;61.80;;;;;;6375594;27;20537;-50
2023/07/13 18:34:46;;;;;;;0.40;0.35;;;26.00;60.90;;;;;;6353266;27;20031;-47
2023/07/13 18:37:48;;;;;;;0.30;0.20;;;26.10;61.80;;;;;;6373534;27;20109;-46
2023/07/13 18:40:50;;;;;;;0.47;0.30;;;26.20;61.40;;;;;;6370543;27;20038;-48
2023/07/13 18:43:52;;;;;;;0.40;0.30;;;26.10;61.90;;;;;;6373224;27;20035;-46
2023/07/13 18:46:54;;;;;;;0.30;0.22;;;26.20;61.60;;;;;;6364384;27;20037;-48
2023/07/13 18:49:58;;;;;;;0.50;0.43;;;26.00;62.00;;;;;;6372818;27;20902;-48
2023/07/13 18:53:00;;;;;;;0.45;0.30;;;26.10;61.20;;;;;;6377256;27;20035;-47
2023/07/13 18:56:02;;;;;;;0.38;0.20;;;26.00;61.50;;;;;;6373960;27;20039;-47
2023/07/13 18:59:04;;;;;;;0.45;0.30;;;26.20;61.70;;;;;;6376901;27;20089;-50
2023/07/13 19:02:12;;;;;;;0.50;0.30;;;26.00;61.20;;;;;;6374980;27;20071;-49
2023/07/13 19:05:20;;;;;;;0.43;0.30;;;25.60;60.70;;;;;;6378523;27;20861;-51
2023/07/13 19:08:23;;;;;;;0.35;0.25;;;26.00;61.20;;;;;;6377905;27;20548;-49
2023/07/13 19:11:25;;;;;;;0.63;0.40;;;26.50;62.00;;;;;;6337420;27;20605;-49
2023/07/13 19:14:27;;;;;;;0.63;0.30;;;26.10;63.10;;;;;;6375119;27;20343;-50
2023/07/13 19:17:28;;;;;;;0.68;0.50;;;26.10;63.00;;;;;;6375145;27;20497;-50
2023/07/13 19:20:30;;;;;;;0.38;0.30;;;26.10;63.20;;;;;;6377021;27;20039;-48
2023/07/13 19:23:34;;;;;;;0.52;0.52;;;26.10;63.50;;;;;;6356682;27;20046;-52
2023/07/13 19:26:39;;;;;;;0.32;0.30;;;26.00;64.60;;;;;;6377204;27;20672;-46
2023/07/13 19:29:41;;;;;;;0.60;0.40;;;26.00;64.50;;;;;;6377945;27;20034;-47
2023/07/13 19:32:45;;;;;;;0.65;0.40;;;25.60;65.00;;;;;;6375524;27;20095;-46
2023/07/13 19:35:50;;;;;;;0.40;0.40;;;26.00;66.50;;;;;;6366389;27;20904;-50
2023/07/13 19:38:52;;;;;;;0.50;0.30;;;25.60;65.80;;;;;;6371556;27;20035;-46
2023/07/13 19:41:56;;;;;;;0.60;0.20;;;25.80;66.00;;;;;;6353744;27;20042;-48
2023/07/13 19:44:59;;;;;;;0.47;0.30;;;25.60;66.70;;;;;;6376102;27;20030;-51
2023/07/13 19:48:02;;;;;;;0.30;0.25;;;25.40;66.70;;;;;;6375535;27;20119;-49
2023/07/13 19:51:06;;;;;;;0.32;0.30;;;25.70;68.10;;;;;;6376514;27;20065;-47
2023/07/13 19:54:12;;;;;;;0.60;0.40;;;25.40;67.70;;;;;;6367307;27;20069;-49
2023/07/13 19:57:16;;;;;;;0.45;0.45;;;25.40;67.80;;;;;;6361754;27;20087;-47
2023/07/13 20:00:21;;;;;;;0.40;0.40;;;25.40;68.70;;;;;;6345600;27;20035;-47
2023/07/13 20:03:22;;;;;;;0.45;0.40;;;25.50;69.10;;;;;;6377407;27;20039;-52
2023/07/13 20:06:28;;;;;;;0.80;0.30;;;25.40;68.70;;;;;;6376306;27;20042;-45
2023/07/13 20:09:34;;;;;;;0.43;0.30;;;25.10;68.80;;;;;;6376683;27;20050;-45
2023/07/13 20:12:45;;;;;;;0.35;0.30;;;25.50;69.10;;;;;;6372399;27;20070;-47
2023/07/13 20:15:47;;;;;;;0.45;0.40;;;25.30;69.30;;;;;;6360231;27;20070;-46
2023/07/13 20:18:49;;;;;;;0.40;0.30;;;25.30;69.80;;;;;;6364572;27;20046;-47
2023/07/13 20:21:52;;;;;;;0.60;0.38;;;25.20;69.80;;;;;;6369752;27;20508;-48
2023/07/13 20:24:53;;;;;;;0.73;0.45;;;25.20;69.50;;;;;;6375563;27;20597;-48
2023/07/13 20:28:04;;;;;;;0.30;0.30;;;25.10;69.70;;;;;;6367605;27;20714;-49
2023/07/13 20:31:14;;;;;;;0.20;0.20;;;25.10;69.60;;;;;;6342246;27;20035;-47
2023/07/13 20:34:19;;;;;;;0.30;0.25;;;25.20;70.40;;;;;;6359162;27;20087;-49
2023/07/13 20:37:32;;;;;;;0.65;0.40;;;25.10;69.90;;;;;;6357269;27;20038;-48
2023/07/13 20:40:34;;;;;;;0.43;0.30;;;24.60;70.30;;;;;;6341674;27;20343;-51
2023/07/13 20:43:36;;;;;;;0.32;0.20;;;24.80;70.30;;;;;;6377490;27;20033;-48
2023/07/13 20:46:39;;;;;;;0.30;0.22;;;25.10;70.30;;;;;;6377857;27;20043;-46
2023/07/13 20:49:41;;;;;;;0.30;0.30;;;25.00;70.10;;;;;;6376926;27;20070;-48
2023/07/13 20:52:46;;;;;;;0.50;0.40;;;25.10;90.00;;;;;;6376923;27;20031;-45
2023/07/13 20:55:50;;;;;;;0.30;0.20;;;25.10;70.40;;;;;;6377508;27;20035;-47
2023/07/13 20:58:54;;;;;;;0.50;0.22;;;24.70;70.70;;;;;;6376834;27;20485;-49
2023/07/13 21:01:56;;;;;;;0.50;0.30;;;25.00;70.70;;;;;;6369532;27;20038;-48
2023/07/13 21:05:09;;;;;;;0.30;0.30;;;24.90;70.50;;;;;;6367503;27;20070;-47
2023/07/13 21:08:11;;;;;;;0.65;0.20;;;25.00;70.50;;;;;;6366874;27;20091;-48
2023/07/13 21:11:12;;;;;;;0.40;0.40;;;24.90;70.90;;;;;;6375219;27;20039;-47
2023/07/13 21:14:17;;;;;;;0.40;0.30;;;24.90;70.40;;;;;;6359014;27;20035;-46
2023/07/13 21:17:21;;;;;;;0.55;0.40;;;24.80;70.80;;;;;;6374085;27;20046;-46
2023/07/13 21:20:27;;;;;;;0.40;0.30;;;24.90;70.70;;;;;;6374096;27;20544;-51
2023/07/13 21:23:31;;;;;;;0.20;0.20;;;24.90;70.60;;;;;;6373213;27;20034;-46
2023/07/13 21:26:32;;;;;;;0.40;0.30;;;25.00;71.00;;;;;;6340519;27;20070;-45
2023/07/13 21:29:34;;;;;;;0.38;0.38;;;24.90;70.80;;;;;;6374911;27;20042;-47
2023/07/13 21:32:38;;;;;;;0.40;0.30;;;24.80;90.70;;;;;;6374895;27;20814;-48
2023/07/13 21:35:45;;;;;;;0.38;0.30;;;25.00;71.40;;;;;;6375503;27;20059;-45
2023/07/13 21:38:53;;;;;;;0.30;0.30;;;24.90;70.90;;;;;;6374357;27;20061;-45
2023/07/13 21:41:54;;;;;;;0.85;0.40;;;24.90;70.70;;;;;;6375745;27;20046;-47
2023/07/13 21:44:57;;;;;;;0.30;0.30;;;24.80;71.00;;;;;;6374734;27;20035;-44
2023/07/13 21:47:58;;;;;;;0.40;0.38;;;24.90;71.00;;;;;;6373247;27;20038;-48
2023/07/13 21:51:00;;;;;;;0.63;0.30;;;24.90;71.60;;;;;;6361446;27;20161;-46
2023/07/13 21:54:13;;;;;;;0.60;0.30;;;24.90;71.20;;;;;;6367103;27;20545;-46
2023/07/13 21:57:16;;;;;;;1.25;0.55;;;24.80;70.70;;;;;;6374309;27;20111;-45
2023/07/13 22:00:21;;;;;;;0.50;0.30;;;24.40;71.10;;;;;;6340727;27;20043;-46
2023/07/13 22:03:25;;;;;;;0.30;0.30;;;24.70;71.10;;;;;;6356909;27;20047;-46
2023/07/13 22:06:30;;;;;;;0.82;0.50;;;24.80;70.70;;;;;;6350410;27;20069;-47
2023/07/13 22:09:33;;;;;;;0.95;0.45;;;25.10;71.10;;;;;;6370333;27;20079;-48
2023/07/13 22:12:35;;;;;;;0.50;0.40;;;24.90;71.10;;;;;;6381505;27;20038;-46
2023/07/13 22:15:38;;;;;;;0.40;0.22;;;24.80;70.90;;;;;;6382787;27;20087;-49
2023/07/13 22:18:42;;;;;;;0.50;0.32;;;24.80;71.20;;;;;;6383251;27;20046;-47
2023/07/13 22:21:46;;;;;;;0.40;0.40;;;24.70;90.20;;;;;;6374499;27;20031;-48
2023/07/13 22:24:50;;;;;;;0.40;0.40;;;24.70;70.90;;;;;;6371492;27;20099;-49
2023/07/13 22:27:55;;;;;;;0.65;0.32;;;24.70;71.30;;;;;;6367648;27;20039;-50
2023/07/13 22:30:58;;;;;;;1.05;0.60;;;24.60;67.30;;;;;;6370878;27;20039;-50
2023/07/13 22:34:00;;;;;;;0.63;0.50;;;24.80;70.60;;;;;;6364602;27;20034;-52
2023/07/13 22:37:02;;;;;;;0.40;0.30;;;24.70;70.90;;;;;;6358757;27;20804;-48
2023/07/13 22:40:13;;;;;;;0.55;0.40;;;24.70;70.80;;;;;;6358894;27;20046;-51
2023/07/13 22:43:19;;;;;;;0.40;0.35;;;24.70;70.70;;;;;;6343947;27;20085;-49
2023/07/13 22:46:26;;;;;;;0.40;0.30;;;24.50;70.50;;;;;;6330009;27;20049;-50
2023/07/13 22:49:29;;;;;;;0.30;0.25;;;24.70;70.90;;;;;;6364211;27;20065;-52
2023/07/13 22:52:31;;;;;;;0.38;0.30;;;24.70;71.40;;;;;;6356554;27;20038;-51
2023/07/13 22:55:34;;;;;;;0.40;0.32;;;24.90;72.10;;;;;;6372606;27;20042;-50
2023/07/13 22:58:36;;;;;;;0.70;0.50;;;24.80;72.10;;;;;;6363540;27;20049;-51
2023/07/13 23:01:39;;;;;;;0.50;0.40;;;24.80;71.30;;;;;;6366449;27;20042;-52
2023/07/13 23:04:44;;;;;;;0.43;0.30;;;24.70;71.20;;;;;;6366820;27;20485;-48
2023/07/13 23:07:46;;;;;;;0.47;0.32;;;24.70;71.10;;;;;;6360566;27;20567;-52
2023/07/13 23:10:52;;;;;;;0.52;0.43;;;24.60;71.10;;;;;;6374592;27;20050;-54
2023/07/13 23:13:54;;;;;;;0.40;0.35;;;24.70;71.70;;;;;;6365732;27;20034;-52
2023/07/13 23:16:56;;;;;;;0.60;0.47;;;25.40;72.00;;;;;;6364271;27;20039;-49
2023/07/13 23:19:58;;;;;;;0.45;0.30;;;24.80;71.20;;;;;;6378006;27;20057;-49
2023/07/13 23:23:02;;;;;;;0.47;0.32;;;24.70;71.10;;;;;;6366787;27;20592;-48
2023/07/13 23:26:09;;;;;;;0.63;0.43;;;24.70;72.10;;;;;;6375518;27;20122;-52
2023/07/13 23:29:10;;;;;;;0.30;0.20;;;24.80;71.00;;;;;;6375438;27;20035;-52
2023/07/13 23:32:15;;;;;;;0.70;0.40;;;24.60;71.30;;;;;;6368791;27;20122;-50
2023/07/13 23:35:18;;;;;;;0.40;0.28;;;24.60;70.90;;;;;;6354466;27;20088;-52
2023/07/13 23:38:19;;;;;;;0.50;0.35;;;24.70;71.50;;;;;;6340817;27;20045;-51
2023/07/13 23:41:25;;;;;;;0.40;0.30;;;24.70;71.10;;;;;;6362933;27;20034;-51
2023/07/13 23:44:26;;;;;;;0.57;0.30;;;24.70;71.00;;;;;;6337333;27;20046;-50
2023/07/13 23:47:31;;;;;;;0.40;0.30;;;24.60;70.80;;;;;;6372889;27;20118;-53
2023/07/13 23:50:34;;;;;;;0.50;0.30;;;24.80;71.10;;;;;;6373777;27;20039;-52
2023/07/13 23:53:36;;;;;;;0.40;0.38;;;24.70;70.70;;;;;;6372890;27;20042;-52
2023/07/13 23:56:38;;;;;;;0.40;0.30;;;24.50;90.40;;;;;;6366736;27;20224;-52
2023/07/13 23:59:39;;;;;;;0.30;0.30;;;24.70;70.40;;;;;;6353910;27;20039;-54
